Time;durP1;ratioP1;P1;durP2;ratioP2;P2;SDS_P1;SDS_P2;PMS_P1;PMS_P2;Temp;Humidity;BMP_temperature;BMP_pressure;BME280_temperature;BME280_humidity;BME280_pressure;Samples;Min_cycle;Max_cycle;Signal;HPM_P1;HPM_P2
2024/02/21 00:01:50;;;;;;;13.50;12.40;;;8.90;99.90;;;;;;4781915;29;20591;-53
2024/02/21 00:04:16;;;;;;;13.47;12.27;;;8.80;99.90;;;;;;4786332;29;20199;-57
2024/02/21 00:06:41;;;;;;;13.10;11.90;;;8.90;99.90;;;;;;4789805;29;20193;-55
2024/02/21 00:09:09;;;;;;;12.77;11.87;;;8.80;99.90;;;;;;4794153;29;20191;-55
2024/02/21 00:11:35;;;;;;;13.63;12.80;;;8.80;99.90;;;;;;4793815;29;20543;-55
2024/02/21 00:14:00;;;;;;;13.83;12.80;;;8.90;99.90;;;;;;4794798;29;20491;-53
2024/02/21 00:16:26;;;;;;;14.07;12.77;;;8.90;99.90;;;;;;4782231;29;20754;-53
2024/02/21 00:18:52;;;;;;;13.70;12.50;;;8.90;99.90;;;;;;4790327;29;20247;-52
2024/02/21 00:21:18;;;;;;;13.50;12.30;;;8.90;99.90;;;;;;4796396;29;20494;-56
2024/02/21 00:23:47;;;;;;;14.20;13.10;;;8.90;99.90;;;;;;4787986;29;20301;-53
2024/02/21 00:26:15;;;;;;;13.07;12.17;;;8.90;99.90;;;;;;4792399;29;21397;-55
2024/02/21 00:28:41;;;;;;;13.37;12.43;;;8.90;99.90;;;;;;4792366;29;20486;-55
2024/02/21 00:31:06;;;;;;;13.30;12.50;;;8.90;99.90;;;;;;4790022;29;20452;-54
2024/02/21 00:33:32;;;;;;;14.63;13.07;;;8.90;99.90;;;;;;4784002;29;20248;-54
2024/02/21 00:35:57;;;;;;;14.43;13.23;;;8.90;99.90;;;;;;4789545;29;20253;-55
2024/02/21 00:38:23;;;;;;;13.47;12.47;;;8.90;99.90;;;;;;4789139;29;20194;-56
2024/02/21 00:40:49;;;;;;;14.10;12.83;;;9.00;99.90;;;;;;4783832;29;20219;-53
2024/02/21 00:43:14;;;;;;;13.97;12.80;;;9.00;99.90;;;;;;4786540;29;20835;-54
2024/02/21 00:45:40;;;;;;;13.60;12.50;;;8.90;99.90;;;;;;4786337;29;20187;-54
2024/02/21 00:48:06;;;;;;;13.00;12.10;;;8.90;99.90;;;;;;4788010;29;20199;-53
2024/02/21 00:50:31;;;;;;;14.03;12.90;;;8.90;99.90;;;;;;4789671;29;20190;-55
2024/02/21 00:52:57;;;;;;;14.27;13.17;;;9.00;99.90;;;;;;4785965;29;20253;-54
2024/02/21 00:55:23;;;;;;;14.20;12.93;;;9.00;99.90;;;;;;4788632;29;20632;-54
2024/02/21 00:57:48;;;;;;;14.33;12.90;;;9.00;99.90;;;;;;4786626;29;20811;-51
2024/02/21 01:00:14;;;;;;;14.40;13.20;;;9.00;99.90;;;;;;4791206;29;20215;-55
2024/02/21 01:02:40;;;;;;;13.57;12.63;;;9.00;99.90;;;;;;4787934;29;20199;-52
2024/02/21 01:05:06;;;;;;;13.47;12.50;;;9.00;99.90;;;;;;4793456;29;20507;-54
2024/02/21 01:07:32;;;;;;;13.70;12.60;;;9.00;99.90;;;;;;4789080;29;20203;-56
2024/02/21 01:09:57;;;;;;;13.53;12.43;;;9.00;99.90;;;;;;4793998;29;21323;-53
2024/02/21 01:12:23;;;;;;;13.93;12.93;;;9.00;99.90;;;;;;4791600;29;20195;-56
2024/02/21 01:14:49;;;;;;;14.23;12.93;;;9.00;99.90;;;;;;4783231;29;20205;-52
2024/02/21 01:17:15;;;;;;;13.70;12.80;;;9.00;99.90;;;;;;4785504;29;20613;-52
2024/02/21 01:19:41;;;;;;;14.00;12.90;;;9.00;99.90;;;;;;4794493;29;20510;-54
2024/02/21 01:22:06;;;;;;;13.13;12.03;;;9.00;99.90;;;;;;4782213;29;20480;-54
2024/02/21 01:24:32;;;;;;;13.23;12.33;;;9.00;99.90;;;;;;4790353;29;20678;-53
2024/02/21 01:26:57;;;;;;;13.63;12.67;;;9.00;99.90;;;;;;4794068;29;20190;-55
2024/02/21 01:29:23;;;;;;;13.57;12.77;;;9.00;99.90;;;;;;4779540;29;20206;-54
2024/02/21 01:31:49;;;;;;;14.13;12.93;;;9.00;99.90;;;;;;4784985;29;20206;-54
2024/02/21 01:34:14;;;;;;;14.67;13.60;;;9.10;99.90;;;;;;4793403;29;20339;-53
2024/02/21 01:36:41;;;;;;;13.90;12.87;;;9.10;99.90;;;;;;4789859;29;20198;-51
2024/02/21 01:39:07;;;;;;;13.67;12.87;;;9.10;99.90;;;;;;4795118;29;20669;-54
2024/02/21 01:41:32;;;;;;;13.10;12.20;;;9.00;99.90;;;;;;4778605;29;20480;-52
2024/02/21 01:43:58;;;;;;;13.60;12.50;;;9.10;99.90;;;;;;4781897;29;20199;-54
2024/02/21 01:46:28;;;;;;;14.80;13.47;;;9.10;99.90;;;;;;4784002;29;20213;-52
2024/02/21 01:49:04;;;;;;;13.97;12.97;;;9.00;99.90;;;;;;4792877;29;20258;-52
2024/02/21 01:51:30;;;;;;;13.83;12.83;;;9.00;99.90;;;;;;4786778;29;20442;-55
2024/02/21 01:53:57;;;;;;;14.17;13.13;;;9.00;99.90;;;;;;4790225;29;20424;-53
2024/02/21 01:56:23;;;;;;;14.87;13.60;;;9.00;99.90;;;;;;4793217;29;20436;-55
2024/02/21 01:58:49;;;;;;;13.63;12.63;;;8.90;99.90;;;;;;4784719;29;20947;-55
2024/02/21 02:01:16;;;;;;;13.20;12.20;;;8.90;99.90;;;;;;4788699;29;20539;-55
2024/02/21 02:03:44;;;;;;;13.50;12.60;;;8.90;99.90;;;;;;4784736;29;20988;-56
2024/02/21 02:06:10;;;;;;;14.37;13.33;;;8.90;99.90;;;;;;4793743;29;20988;-55
2024/02/21 02:08:36;;;;;;;13.53;12.53;;;8.80;99.90;;;;;;4788875;29;20421;-44
2024/02/21 02:11:02;;;;;;;14.60;13.30;;;8.90;99.90;;;;;;4785324;29;20197;-46
2024/02/21 02:13:27;;;;;;;13.97;13.03;;;8.80;99.90;;;;;;4788752;29;21003;-49
2024/02/21 02:15:53;;;;;;;14.17;13.17;;;8.80;99.90;;;;;;4786364;29;20501;-47
2024/02/21 02:18:19;;;;;;;13.60;12.70;;;8.70;99.90;;;;;;4790537;29;20655;-44
2024/02/21 02:20:46;;;;;;;13.30;12.37;;;8.80;99.90;;;;;;4793894;29;20209;-45
2024/02/21 02:23:25;;;;;;;13.77;12.60;;;8.70;99.90;;;;;;4783906;29;21206;-45
2024/02/21 02:25:54;;;;;;;13.37;12.33;;;8.60;99.90;;;;;;4783185;29;20543;-44
2024/02/21 02:28:19;;;;;;;12.80;12.10;;;8.70;99.90;;;;;;4786484;29;20426;-43
2024/02/21 02:30:46;;;;;;;12.97;12.17;;;8.60;99.90;;;;;;4788110;29;20499;-46
2024/02/21 02:33:11;;;;;;;14.33;13.13;;;8.60;99.90;;;;;;4793669;29;20431;-46
2024/02/21 02:35:37;;;;;;;13.70;12.70;;;8.60;99.90;;;;;;4788836;29;20489;-49
2024/02/21 02:38:03;;;;;;;13.80;12.47;;;8.60;99.90;;;;;;4794111;29;20230;-44
2024/02/21 02:40:29;;;;;;;14.07;13.07;;;8.50;99.90;;;;;;4783445;29;20745;-44
2024/02/21 02:42:55;;;;;;;13.30;12.37;;;8.50;99.90;;;;;;4782679;29;20527;-49
2024/02/21 02:45:23;;;;;;;13.70;12.80;;;8.50;99.90;;;;;;4778841;29;20456;-45
2024/02/21 02:47:49;;;;;;;14.30;13.10;;;8.50;99.90;;;;;;4782807;29;20459;-44
2024/02/21 02:50:15;;;;;;;13.80;12.90;;;8.50;99.90;;;;;;4784014;29;20532;-47
2024/02/21 02:52:40;;;;;;;14.00;12.90;;;8.50;99.90;;;;;;4792277;29;20197;-43
2024/02/21 02:55:06;;;;;;;14.27;12.90;;;8.40;99.90;;;;;;4783573;29;20497;-45
2024/02/21 02:57:32;;;;;;;13.53;12.50;;;8.40;99.90;;;;;;4788108;29;20193;-52
2024/02/21 02:59:58;;;;;;;13.33;12.43;;;8.40;99.90;;;;;;4777651;29;20882;-55
2024/02/21 03:02:24;;;;;;;13.93;12.93;;;8.40;99.90;;;;;;4779052;29;20973;-56
2024/02/21 03:04:50;;;;;;;12.93;12.03;;;8.40;99.90;;;;;;4781530;29;20804;-56
2024/02/21 03:07:15;;;;;;;13.07;12.37;;;8.50;99.90;;;;;;4791534;29;20186;-52
2024/02/21 03:09:44;;;;;;;13.63;12.73;;;8.40;99.90;;;;;;4792484;29;20191;-51
2024/02/21 03:12:10;;;;;;;13.57;12.13;;;8.40;99.90;;;;;;4789826;29;21040;-56
2024/02/21 03:14:35;;;;;;;13.20;12.23;;;8.30;99.90;;;;;;4789769;29;20469;-51
2024/02/21 03:17:02;;;;;;;13.30;12.50;;;8.30;99.90;;;;;;4781770;29;20222;-53
2024/02/21 03:19:28;;;;;;;14.40;13.37;;;8.30;99.90;;;;;;4782190;29;20198;-55
2024/02/21 03:21:54;;;;;;;13.27;12.33;;;8.20;99.90;;;;;;4787632;29;20480;-53
2024/02/21 03:24:20;;;;;;;14.10;12.90;;;8.20;99.90;;;;;;4786387;29;20443;-56
2024/02/21 03:26:50;;;;;;;14.27;13.17;;;8.20;99.90;;;;;;4783081;29;20480;-54
2024/02/21 03:29:16;;;;;;;14.33;13.33;;;8.10;99.90;;;;;;4785949;29;20449;-52
2024/02/21 03:31:43;;;;;;;13.40;12.50;;;8.20;99.90;;;;;;4778766;29;20486;-53
2024/02/21 03:34:11;;;;;;;13.40;12.50;;;8.10;99.90;;;;;;4786665;29;20570;-53
2024/02/21 03:36:36;;;;;;;15.63;14.37;;;8.10;99.90;;;;;;4783245;29;20428;-44
2024/02/21 03:39:02;;;;;;;14.97;13.87;;;8.20;99.90;;;;;;4787170;29;20455;-46
2024/02/21 03:41:28;;;;;;;14.30;13.00;;;8.20;99.90;;;;;;4785082;29;20221;-44
2024/02/21 03:43:54;;;;;;;14.23;13.10;;;8.10;99.90;;;;;;4782256;29;20428;-44
2024/02/21 03:46:19;;;;;;;13.33;12.30;;;8.10;99.90;;;;;;4788974;29;20511;-43
2024/02/21 03:48:45;;;;;;;13.50;12.50;;;8.10;99.90;;;;;;4786288;29;20193;-46
2024/02/21 03:51:11;;;;;;;14.13;13.13;;;8.10;99.90;;;;;;4785815;29;20190;-46
2024/02/21 03:53:37;;;;;;;14.20;13.10;;;8.10;99.90;;;;;;4792127;29;20222;-47
2024/02/21 03:56:03;;;;;;;13.90;13.10;;;8.10;99.90;;;;;;4782783;29;20190;-47
2024/02/21 03:58:32;;;;;;;14.37;13.00;;;8.00;99.90;;;;;;4787992;29;20199;-45
2024/02/21 04:01:01;;;;;;;14.30;13.10;;;8.00;99.90;;;;;;4785670;29;21001;-44
2024/02/21 04:03:27;;;;;;;14.03;12.67;;;8.00;99.90;;;;;;4786610;29;20440;-44
2024/02/21 04:05:52;;;;;;;13.70;12.37;;;8.00;99.90;;;;;;4788010;29;20910;-44
2024/02/21 04:08:18;;;;;;;14.43;13.07;;;8.00;99.90;;;;;;4793470;29;21039;-44
2024/02/21 04:10:43;;;;;;;13.27;12.47;;;8.00;99.90;;;;;;4783232;29;20198;-46
2024/02/21 04:13:09;;;;;;;14.80;13.10;;;8.00;99.90;;;;;;4786458;29;20311;-43
2024/02/21 04:15:35;;;;;;;14.03;13.10;;;8.10;99.90;;;;;;4788474;29;20218;-45
2024/02/21 04:18:01;;;;;;;14.97;13.87;;;8.10;99.90;;;;;;4779143;29;20727;-44
2024/02/21 04:20:27;;;;;;;15.47;14.00;;;8.10;99.90;;;;;;4779617;29;20709;-45
2024/02/21 04:22:52;;;;;;;14.10;12.90;;;8.10;99.90;;;;;;4783585;29;20458;-44
2024/02/21 04:25:19;;;;;;;14.10;13.27;;;8.10;99.90;;;;;;4794801;29;20195;-44
2024/02/21 04:27:44;;;;;;;14.30;13.00;;;8.10;99.90;;;;;;4788377;29;20188;-44
2024/02/21 04:30:10;;;;;;;14.37;13.17;;;8.20;99.90;;;;;;4784647;29;20458;-46
2024/02/21 04:32:36;;;;;;;14.43;13.37;;;8.20;99.90;;;;;;4786298;29;20199;-46
2024/02/21 04:35:01;;;;;;;14.27;13.07;;;8.20;99.90;;;;;;4785056;29;20186;-49
2024/02/21 04:37:27;;;;;;;12.00;11.10;;;8.20;99.90;;;;;;4788635;29;20277;-46
2024/02/21 04:40:39;;;;;;;14.20;13.10;;;8.30;99.90;;;;;;4788727;29;20248;-43
2024/02/21 04:43:05;;;;;;;14.07;12.97;;;8.50;99.90;;;;;;4792255;29;20194;-47
2024/02/21 04:45:30;;;;;;;14.57;13.47;;;8.60;99.90;;;;;;4790453;29;20927;-44
2024/02/21 04:47:56;;;;;;;13.50;12.30;;;8.70;99.90;;;;;;4782350;29;20257;-45
2024/02/21 04:50:22;;;;;;;13.47;12.57;;;8.70;99.90;;;;;;4795472;29;20284;-45
2024/02/21 04:52:47;;;;;;;13.27;12.27;;;8.70;99.90;;;;;;4787444;29;20231;-44
2024/02/21 04:55:13;;;;;;;13.83;13.00;;;8.70;99.90;;;;;;4791434;29;20666;-45
2024/02/21 04:57:38;;;;;;;13.93;12.90;;;8.70;99.90;;;;;;4786566;29;20686;-45
2024/02/21 05:00:06;;;;;;;13.57;12.53;;;8.70;99.90;;;;;;4785848;29;20202;-45
2024/02/21 05:02:31;;;;;;;12.50;11.53;;;8.80;99.90;;;;;;4783339;29;20739;-46
2024/02/21 05:04:57;;;;;;;13.03;12.00;;;8.80;99.90;;;;;;4786821;29;20428;-46
2024/02/21 05:07:23;;;;;;;12.87;11.87;;;8.80;99.90;;;;;;4779773;29;20219;-46
2024/02/21 05:09:48;;;;;;;12.80;11.93;;;8.80;99.90;;;;;;4778549;29;20203;-44
2024/02/21 05:12:14;;;;;;;13.80;12.40;;;8.80;99.90;;;;;;4782413;29;20679;-49
2024/02/21 05:14:39;;;;;;;13.50;12.47;;;8.70;99.90;;;;;;4788307;29;20895;-45
2024/02/21 05:17:05;;;;;;;13.53;12.33;;;8.70;99.90;;;;;;4783045;29;20207;-47
2024/02/21 05:19:30;;;;;;;12.47;11.57;;;8.70;99.90;;;;;;4788904;29;20205;-47
2024/02/21 05:21:56;;;;;;;14.93;13.30;;;8.70;99.90;;;;;;4789405;29;20268;-46
2024/02/21 05:24:22;;;;;;;14.20;12.97;;;8.80;99.90;;;;;;4789732;29;20206;-44
2024/02/21 05:26:47;;;;;;;14.20;13.10;;;8.80;99.90;;;;;;4785254;29;20198;-47
2024/02/21 05:29:13;;;;;;;13.30;12.40;;;8.80;99.90;;;;;;4788265;29;20214;-44
2024/02/21 05:31:51;;;;;;;12.90;12.00;;;8.80;99.90;;;;;;4784233;29;20217;-44
2024/02/21 05:34:20;;;;;;;14.07;12.87;;;8.90;99.90;;;;;;4787143;29;20202;-45
2024/02/21 05:36:46;;;;;;;13.70;12.73;;;8.90;99.90;;;;;;4789249;29;20569;-45
2024/02/21 05:39:12;;;;;;;12.60;11.80;;;8.80;99.90;;;;;;4791712;29;20435;-47
2024/02/21 05:41:38;;;;;;;14.20;13.13;;;8.70;99.90;;;;;;4788283;29;20816;-43
2024/02/21 05:44:04;;;;;;;14.67;13.43;;;8.80;99.90;;;;;;4783877;29;20531;-46
2024/02/21 05:46:29;;;;;;;13.93;12.53;;;8.80;99.90;;;;;;4784299;29;20662;-45
2024/02/21 05:48:55;;;;;;;13.80;12.90;;;8.80;99.90;;;;;;4778706;29;20548;-43
2024/02/21 05:51:21;;;;;;;14.80;13.63;;;8.80;99.90;;;;;;4794158;29;20202;-44
2024/02/21 05:53:46;;;;;;;14.00;12.70;;;8.70;99.90;;;;;;4779035;29;20233;-46
2024/02/21 05:56:13;;;;;;;14.13;12.77;;;8.70;99.90;;;;;;4777091;29;20203;-44
2024/02/21 05:58:39;;;;;;;13.20;12.20;;;8.80;99.90;;;;;;4777039;29;20276;-44
2024/02/21 06:01:06;;;;;;;14.57;13.63;;;8.80;99.90;;;;;;4783399;29;20483;-43
2024/02/21 06:03:32;;;;;;;13.90;12.90;;;8.80;99.90;;;;;;4782882;29;20457;-44
2024/02/21 06:06:02;;;;;;;14.83;13.60;;;8.80;99.90;;;;;;4776511;29;20443;-44
2024/02/21 06:08:27;;;;;;;14.57;13.40;;;8.70;99.90;;;;;;4782598;29;21093;-45
2024/02/21 06:10:54;;;;;;;14.23;13.13;;;8.70;99.90;;;;;;4776513;29;20611;-43
2024/02/21 06:13:29;;;;;;;14.83;13.60;;;8.80;99.90;;;;;;4780378;29;20246;-44
2024/02/21 06:15:54;;;;;;;15.33;14.17;;;8.80;99.90;;;;;;4793062;29;20442;-43
2024/02/21 06:18:20;;;;;;;14.60;13.40;;;8.80;99.90;;;;;;4784569;29;20894;-43
2024/02/21 06:20:47;;;;;;;13.67;12.77;;;8.70;99.90;;;;;;4781059;29;20720;-46
2024/02/21 06:23:16;;;;;;;14.57;13.33;;;8.80;99.90;;;;;;4780374;29;20928;-43
2024/02/21 06:25:42;;;;;;;14.43;13.20;;;8.80;99.90;;;;;;4785346;29;21289;-47
2024/02/21 06:28:08;;;;;;;14.27;13.10;;;8.80;99.90;;;;;;4781055;29;20534;-45
2024/02/21 06:30:34;;;;;;;13.87;12.87;;;8.70;99.90;;;;;;4792354;29;20206;-47
2024/02/21 06:32:59;;;;;;;15.07;13.90;;;8.70;99.90;;;;;;4783879;29;20611;-46
2024/02/21 06:35:25;;;;;;;14.50;13.40;;;8.80;99.90;;;;;;4789122;29;20195;-45
2024/02/21 06:37:52;;;;;;;15.23;14.00;;;8.80;99.90;;;;;;4784603;29;20210;-43
2024/02/21 06:40:26;;;;;;;14.67;13.67;;;8.80;99.90;;;;;;4783977;29;20642;-44
2024/02/21 06:42:51;;;;;;;14.00;13.00;;;8.90;99.90;;;;;;4778937;29;20435;-44
2024/02/21 06:45:17;;;;;;;13.70;12.90;;;8.80;99.90;;;;;;4778837;29;20442;-43
2024/02/21 06:47:43;;;;;;;14.20;13.10;;;8.80;99.90;;;;;;4789175;29;20198;-44
2024/02/21 06:50:09;;;;;;;15.50;14.30;;;8.90;99.90;;;;;;4783301;29;20349;-46
2024/02/21 06:52:35;;;;;;;15.20;14.03;;;8.90;99.90;;;;;;4787295;29;20202;-44
2024/02/21 06:55:01;;;;;;;14.20;13.23;;;8.90;99.90;;;;;;4779028;29;20441;-45
2024/02/21 06:57:28;;;;;;;14.60;13.23;;;8.90;99.90;;;;;;4788127;29;20443;-45
2024/02/21 06:59:57;;;;;;;14.27;13.07;;;8.90;99.90;;;;;;4778357;29;20750;-43
2024/02/21 07:02:22;;;;;;;13.90;13.00;;;9.00;99.90;;;;;;4781605;29;20483;-46
2024/02/21 07:04:48;;;;;;;15.10;13.93;;;9.00;99.90;;;;;;4779751;29;20450;-44
2024/02/21 07:07:14;;;;;;;15.53;14.33;;;9.00;99.90;;;;;;4792138;29;20711;-45
2024/02/21 07:09:39;;;;;;;14.63;13.63;;;9.00;99.90;;;;;;4786557;29;20191;-46
2024/02/21 07:12:05;;;;;;;14.67;13.43;;;9.00;99.90;;;;;;4784964;29;20198;-43
2024/02/21 07:14:36;;;;;;;14.67;13.50;;;9.00;99.90;;;;;;4785105;29;20265;-50
2024/02/21 07:17:02;;;;;;;14.97;13.67;;;9.10;99.90;;;;;;4781734;29;20486;-45
2024/02/21 07:19:27;;;;;;;14.57;13.50;;;9.20;99.90;;;;;;4782867;29;20444;-43
2024/02/21 07:21:53;;;;;;;14.40;13.20;;;9.20;99.90;;;;;;4791297;29;20637;-43
2024/02/21 07:24:19;;;;;;;13.67;12.77;;;9.20;99.90;;;;;;4791848;29;20738;-44
2024/02/21 07:26:45;;;;;;;14.60;13.50;;;9.20;99.90;;;;;;4792120;29;20194;-44
2024/02/21 07:29:10;;;;;;;13.97;12.97;;;9.20;99.90;;;;;;4786801;29;20436;-43
2024/02/21 07:31:43;;;;;;;14.70;13.60;;;9.30;99.90;;;;;;4781219;29;20271;-46
2024/02/21 07:34:10;;;;;;;15.10;13.80;;;9.30;99.90;;;;;;4788484;29;20256;-51
2024/02/21 07:36:37;;;;;;;14.33;13.43;;;9.30;99.90;;;;;;4779430;29;20452;-53
2024/02/21 07:39:04;;;;;;;13.73;12.83;;;9.30;99.90;;;;;;4782560;29;20437;-52
2024/02/21 07:41:30;;;;;;;14.70;13.50;;;9.40;99.90;;;;;;4778308;29;20488;-52
2024/02/21 07:43:56;;;;;;;12.93;12.13;;;9.40;99.90;;;;;;4783686;29;21199;-51
2024/02/21 07:46:21;;;;;;;14.30;13.20;;;9.40;99.90;;;;;;4792701;29;20439;-51
2024/02/21 07:48:47;;;;;;;14.10;12.83;;;9.60;99.90;;;;;;4791630;29;20289;-54
2024/02/21 07:51:13;;;;;;;13.90;13.00;;;9.80;99.90;;;;;;4792523;29;20195;-52
2024/02/21 07:53:44;;;;;;;13.83;12.93;;;9.90;99.90;;;;;;4791990;29;20479;-50
2024/02/21 07:56:13;;;;;;;13.90;12.80;;;10.00;99.90;;;;;;4777192;29;20195;-53
2024/02/21 07:58:39;;;;;;;14.03;13.13;;;10.10;99.90;;;;;;4785768;29;20460;-51
2024/02/21 08:01:05;;;;;;;14.33;12.90;;;10.10;99.90;;;;;;4782672;29;20516;-53
2024/02/21 08:03:31;;;;;;;13.50;12.60;;;10.20;99.90;;;;;;4787033;29;20521;-53
2024/02/21 08:05:56;;;;;;;14.30;12.93;;;10.20;99.90;;;;;;4781775;29;20643;-54
2024/02/21 08:08:22;;;;;;;14.27;12.97;;;10.10;99.90;;;;;;4790294;29;20198;-51
2024/02/21 08:10:50;;;;;;;13.40;12.40;;;10.20;99.90;;;;;;4791095;29;20198;-53
2024/02/21 08:13:16;;;;;;;13.90;12.90;;;10.20;99.90;;;;;;4795558;29;20254;-53
2024/02/21 08:15:42;;;;;;;13.70;12.70;;;10.20;99.90;;;;;;4789950;29;20447;-54
2024/02/21 08:18:08;;;;;;;13.67;12.10;;;10.30;99.90;;;;;;4796105;29;20198;-52
2024/02/21 08:20:33;;;;;;;13.37;12.47;;;10.30;99.90;;;;;;4790544;29;20261;-52
2024/02/21 08:22:59;;;;;;;13.13;12.10;;;10.30;99.90;;;;;;4784387;29;20544;-54
2024/02/21 08:25:25;;;;;;;13.27;12.37;;;10.40;99.90;;;;;;4785368;29;20684;-55
2024/02/21 08:27:51;;;;;;;14.97;13.60;;;10.60;99.90;;;;;;4784008;29;20433;-46
2024/02/21 08:30:17;;;;;;;14.10;13.23;;;11.00;99.90;;;;;;4791327;29;20195;-53
2024/02/21 08:32:43;;;;;;;14.33;13.00;;;11.30;99.90;;;;;;4795279;29;20432;-54
2024/02/21 08:35:09;;;;;;;13.53;12.60;;;11.30;99.90;;;;;;4792747;29;20951;-53
2024/02/21 08:37:34;;;;;;;14.20;13.20;;;11.20;99.90;;;;;;4795525;29;20204;-53
2024/02/21 08:40:08;;;;;;;15.37;14.07;;;11.10;99.90;;;;;;4791043;29;20578;-51
2024/02/21 08:42:35;;;;;;;15.67;14.43;;;11.10;99.90;;;;;;4794829;29;20301;-43
2024/02/21 08:45:01;;;;;;;15.03;13.93;;;11.20;99.90;;;;;;4789975;29;20953;-49
2024/02/21 08:47:27;;;;;;;15.00;13.80;;;11.40;99.90;;;;;;4781016;29;20432;-43
2024/02/21 08:49:52;;;;;;;14.30;13.30;;;11.60;99.80;;;;;;4793446;29;20419;-44
2024/02/21 08:52:18;;;;;;;13.60;12.70;;;11.70;99.10;;;;;;4779937;29;20526;-44
2024/02/21 08:54:44;;;;;;;14.13;13.13;;;11.70;99.40;;;;;;4784934;29;20211;-46
2024/02/21 08:57:09;;;;;;;13.10;12.10;;;11.60;98.60;;;;;;4790528;29;20678;-50
2024/02/21 08:59:35;;;;;;;14.27;13.20;;;11.40;99.30;;;;;;4792953;29;20562;-46
2024/02/21 09:02:02;;;;;;;14.07;12.97;;;11.40;98.80;;;;;;4782111;29;20250;-44
2024/02/21 09:04:28;;;;;;;13.57;12.60;;;11.10;99.10;;;;;;4794819;29;20187;-45
2024/02/21 09:06:55;;;;;;;13.23;12.00;;;11.10;99.40;;;;;;4790907;29;20813;-44
2024/02/21 09:09:20;;;;;;;14.20;12.87;;;11.00;99.90;;;;;;4782294;29;20425;-45
2024/02/21 09:11:46;;;;;;;13.33;12.20;;;10.80;99.60;;;;;;4794481;29;20784;-45
2024/02/21 09:14:12;;;;;;;12.80;12.00;;;10.60;99.50;;;;;;4786346;29;20710;-44
2024/02/21 09:16:37;;;;;;;12.77;12.07;;;10.70;99.90;;;;;;4784764;29;20197;-49
2024/02/21 09:19:03;;;;;;;13.63;12.73;;;10.70;99.80;;;;;;4793057;29;20198;-45
2024/02/21 09:21:28;;;;;;;13.70;12.70;;;10.60;99.90;;;;;;4781927;29;20667;-48
2024/02/21 09:23:54;;;;;;;13.40;12.47;;;10.60;99.90;;;;;;4782610;29;20265;-44
2024/02/21 09:26:20;;;;;;;13.50;12.60;;;10.60;99.90;;;;;;4779221;29;20542;-47
2024/02/21 09:28:45;;;;;;;12.47;11.67;;;10.60;99.90;;;;;;4794837;29;20997;-48
2024/02/21 09:31:11;;;;;;;12.63;11.63;;;10.70;99.90;;;;;;4789207;29;20276;-44
2024/02/21 09:33:37;;;;;;;13.57;12.43;;;10.70;99.90;;;;;;4794498;29;20625;-46
2024/02/21 09:36:05;;;;;;;13.33;12.40;;;10.80;99.90;;;;;;4787799;29;20644;-44
2024/02/21 09:38:31;;;;;;;13.03;12.13;;;10.80;99.90;;;;;;4788659;29;20213;-47
2024/02/21 09:41:24;;;;;;;12.33;11.53;;;10.80;99.90;;;;;;4786345;29;20813;-48
2024/02/21 09:43:50;;;;;;;13.20;12.40;;;10.70;99.90;;;;;;4783572;29;20808;-48
2024/02/21 09:46:21;;;;;;;13.00;12.10;;;10.70;99.90;;;;;;4791646;29;20432;-48
2024/02/21 09:49:26;;;;;;;14.23;13.00;;;10.80;99.90;;;;;;4785184;29;20441;-45
2024/02/21 09:51:53;;;;;;;13.23;12.03;;;10.80;99.90;;;;;;4790792;29;20776;-44
2024/02/21 09:54:20;;;;;;;12.87;11.97;;;10.70;99.90;;;;;;4785833;29;20432;-44
2024/02/21 09:56:47;;;;;;;13.97;12.97;;;10.80;99.90;;;;;;4783320;29;20451;-44
2024/02/21 09:59:16;;;;;;;13.60;12.50;;;10.70;99.90;;;;;;4783951;29;20509;-48
2024/02/21 10:01:49;;;;;;;13.23;12.43;;;10.70;99.90;;;;;;4786948;29;20895;-44
2024/02/21 10:04:14;;;;;;;13.30;12.27;;;10.80;99.90;;;;;;4793973;29;20476;-46
2024/02/21 10:06:41;;;;;;;12.60;11.80;;;10.70;99.90;;;;;;4787135;29;20433;-48
2024/02/21 10:09:07;;;;;;;12.53;11.40;;;10.70;99.90;;;;;;4793833;29;20242;-44
2024/02/21 10:11:36;;;;;;;13.20;12.20;;;10.70;99.90;;;;;;4790056;29;20421;-44
2024/02/21 10:14:05;;;;;;;13.10;11.90;;;10.70;99.90;;;;;;4785442;29;20578;-46
2024/02/21 10:16:31;;;;;;;12.30;11.40;;;10.60;99.90;;;;;;4787568;29;20436;-44
2024/02/21 10:18:56;;;;;;;14.63;13.13;;;10.60;99.90;;;;;;4789971;29;20804;-45
2024/02/21 10:21:22;;;;;;;13.00;12.03;;;10.60;99.90;;;;;;4790644;29;20865;-44
2024/02/21 10:23:51;;;;;;;14.03;12.70;;;10.60;99.90;;;;;;4793569;29;20194;-44
2024/02/21 10:26:19;;;;;;;12.97;11.97;;;10.70;99.90;;;;;;4780352;29;20867;-44
2024/02/21 10:28:47;;;;;;;13.17;11.90;;;10.60;99.90;;;;;;4791374;29;20896;-45
2024/02/21 10:31:26;;;;;;;13.30;12.40;;;10.70;99.90;;;;;;4793733;29;20427;-44
2024/02/21 10:33:59;;;;;;;13.37;12.47;;;10.80;99.90;;;;;;4784599;29;21002;-48
2024/02/21 10:36:25;;;;;;;13.00;11.70;;;10.80;99.90;;;;;;4786221;29;20452;-43
2024/02/21 10:38:52;;;;;;;13.30;12.30;;;10.80;99.90;;;;;;4785659;29;20582;-44
2024/02/21 10:41:21;;;;;;;14.13;12.90;;;10.80;99.90;;;;;;4792999;29;20479;-44
2024/02/21 10:43:54;;;;;;;13.83;12.83;;;10.80;99.90;;;;;;4786552;29;20424;-47
2024/02/21 10:46:22;;;;;;;13.40;12.57;;;10.80;99.90;;;;;;4793139;29;20420;-44
2024/02/21 10:48:53;;;;;;;12.70;11.90;;;10.80;99.90;;;;;;4787827;29;20432;-47
2024/02/21 10:51:20;;;;;;;12.20;11.60;;;10.80;99.90;;;;;;4790025;29;20435;-43
2024/02/21 10:53:53;;;;;;;12.20;11.43;;;10.90;99.90;;;;;;4789435;29;20504;-51
2024/02/21 10:56:37;;;;;;;12.87;12.00;;;10.90;99.90;;;;;;4793221;29;20473;-45
2024/02/21 10:59:04;;;;;;;12.80;11.97;;;11.00;99.90;;;;;;4790055;29;20931;-50
2024/02/21 11:01:35;;;;;;;13.63;12.60;;;11.00;99.80;;;;;;4782057;29;20865;-46
2024/02/21 11:04:08;;;;;;;13.73;12.43;;;11.10;99.40;;;;;;4791951;29;20928;-45
2024/02/21 11:06:36;;;;;;;12.80;12.00;;;11.00;99.50;;;;;;4793354;29;20432;-44
2024/02/21 11:09:05;;;;;;;13.27;12.30;;;11.00;99.30;;;;;;4781909;29;20432;-45
2024/02/21 11:11:35;;;;;;;12.60;11.80;;;10.80;99.50;;;;;;4787297;29;20432;-46
2024/02/21 11:14:08;;;;;;;11.80;11.00;;;10.80;99.50;;;;;;4779780;29;20484;-46
2024/02/21 11:16:42;;;;;;;11.83;11.10;;;10.80;99.90;;;;;;4791603;29;20451;-44
2024/02/21 11:19:21;;;;;;;13.30;12.20;;;10.70;99.90;;;;;;4782584;29;20448;-44
2024/02/21 11:21:47;;;;;;;12.50;11.30;;;10.60;99.90;;;;;;4784412;29;20467;-46
2024/02/21 11:24:13;;;;;;;12.90;12.00;;;10.60;99.90;;;;;;4787089;29;20511;-48
2024/02/21 11:26:42;;;;;;;13.20;12.40;;;10.60;99.90;;;;;;4784495;29;20450;-46
2024/02/21 11:29:09;;;;;;;12.43;11.50;;;10.70;99.90;;;;;;4782020;29;20194;-44
2024/02/21 11:31:45;;;;;;;11.93;11.23;;;10.80;99.90;;;;;;4784101;29;20467;-44
2024/02/21 11:34:18;;;;;;;12.90;12.00;;;10.70;99.90;;;;;;4782565;29;20427;-55
2024/02/21 11:36:52;;;;;;;13.30;12.30;;;10.80;99.90;;;;;;4781339;29;20433;-47
2024/02/21 11:39:22;;;;;;;12.63;11.67;;;10.90;99.90;;;;;;4785760;29;20536;-45
2024/02/21 11:42:03;;;;;;;13.00;12.20;;;10.80;99.90;;;;;;4794736;29;20476;-44
2024/02/21 11:44:30;;;;;;;13.93;12.90;;;10.80;99.90;;;;;;4787091;29;20752;-44
2024/02/21 11:46:56;;;;;;;14.80;13.60;;;10.90;99.90;;;;;;4791311;29;20775;-45
2024/02/21 11:49:21;;;;;;;12.77;11.97;;;10.90;99.90;;;;;;4786376;29;20540;-43
2024/02/21 11:51:48;;;;;;;13.40;12.40;;;10.90;99.70;;;;;;4791159;29;20274;-45
2024/02/21 11:54:16;;;;;;;12.73;11.90;;;10.80;99.70;;;;;;4787616;29;20201;-43
2024/02/21 11:56:42;;;;;;;12.33;11.67;;;10.90;99.90;;;;;;4792422;29;20769;-44
2024/02/21 11:59:09;;;;;;;12.33;11.73;;;10.90;99.80;;;;;;4787803;29;20427;-47
2024/02/21 12:01:34;;;;;;;12.40;11.53;;;10.80;99.50;;;;;;4782451;29;20211;-45
2024/02/21 12:04:00;;;;;;;13.93;13.10;;;10.70;99.90;;;;;;4785346;29;20436;-46
2024/02/21 12:06:26;;;;;;;13.00;12.20;;;10.80;99.90;;;;;;4787767;29;20190;-48
2024/02/21 12:08:52;;;;;;;13.97;13.10;;;10.80;99.90;;;;;;4791430;29;20722;-49
2024/02/21 12:11:22;;;;;;;13.60;12.70;;;10.90;99.90;;;;;;4789346;29;20662;-51
2024/02/21 12:14:09;;;;;;;13.67;12.87;;;10.90;99.90;;;;;;4787346;29;20483;-51
2024/02/21 12:16:38;;;;;;;14.30;13.30;;;10.90;99.90;;;;;;4788982;29;20437;-55
2024/02/21 12:19:04;;;;;;;13.10;12.30;;;11.10;99.90;;;;;;4789829;29;20424;-53
2024/02/21 12:21:39;;;;;;;12.70;12.00;;;11.10;99.70;;;;;;4790349;29;20481;-53
2024/02/21 12:24:15;;;;;;;12.60;12.00;;;11.40;99.80;;;;;;4788936;29;20592;-47
2024/02/21 12:26:41;;;;;;;12.43;11.73;;;11.80;98.40;;;;;;4783247;29;20427;-51
2024/02/21 12:29:11;;;;;;;12.27;11.60;;;11.90;97.90;;;;;;4788501;29;20954;-53
2024/02/21 12:31:37;;;;;;;12.97;12.17;;;11.90;98.30;;;;;;4782436;29;21113;-47
2024/02/21 12:34:03;;;;;;;13.93;13.00;;;12.00;97.80;;;;;;4789925;29;20469;-56